sensor_id;sensor_type;location;lat;lon;timestamp;P1;durP1;ratioP1;P2;durP2;ratioP2
3066;SDS011;1544;48.834;9.194;2024-03-07T00:00:51;33.33;;;19.43;;
3066;SDS011;1544;48.834;9.194;2024-03-07T00:03:29;34.67;;;20.90;;
3066;SDS011;1544;48.834;9.194;2024-03-07T00:06:05;42.37;;;22.20;;
3066;SDS011;1544;48.834;9.194;2024-03-07T00:08:41;32.10;;;20.60;;
3066;SDS011;1544;48.834;9.194;2024-03-07T00:11:17;32.23;;;20.07;;
3066;SDS011;1544;48.834;9.194;2024-03-07T00:13:54;33.43;;;20.70;;
3066;SDS011;1544;48.834;9.194;2024-03-07T00:16:30;31.97;;;20.37;;
3066;SDS011;1544;48.834;9.194;2024-03-07T00:19:07;29.57;;;19.90;;
3066;SDS011;1544;48.834;9.194;2024-03-07T00:21:42;30.23;;;20.20;;
3066;SDS011;1544;48.834;9.194;2024-03-07T00:24:19;35.40;;;21.60;;
3066;SDS011;1544;48.834;9.194;2024-03-07T00:26:56;35.03;;;20.60;;
3066;SDS011;1544;48.834;9.194;2024-03-07T00:29:32;38.17;;;22.50;;
3066;SDS011;1544;48.834;9.194;2024-03-07T00:32:10;35.97;;;20.73;;
3066;SDS011;1544;48.834;9.194;2024-03-07T00:34:49;35.23;;;21.20;;
3066;SDS011;1544;48.834;9.194;2024-03-07T00:37:25;37.57;;;21.57;;
3066;SDS011;1544;48.834;9.194;2024-03-07T00:40:02;40.80;;;22.53;;
3066;SDS011;1544;48.834;9.194;2024-03-07T00:42:38;39.77;;;22.23;;
3066;SDS011;1544;48.834;9.194;2024-03-07T00:45:14;36.77;;;22.37;;
3066;SDS011;1544;48.834;9.194;2024-03-07T00:47:50;38.03;;;21.30;;
3066;SDS011;1544;48.834;9.194;2024-03-07T00:50:26;38.87;;;22.53;;
3066;SDS011;1544;48.834;9.194;2024-03-07T00:53:03;33.70;;;21.63;;
3066;SDS011;1544;48.834;9.194;2024-03-07T00:55:39;38.57;;;21.80;;
3066;SDS011;1544;48.834;9.194;2024-03-07T00:58:15;42.43;;;22.33;;
3066;SDS011;1544;48.834;9.194;2024-03-07T01:00:51;40.20;;;23.33;;
3066;SDS011;1544;48.834;9.194;2024-03-07T01:03:31;36.93;;;22.80;;
3066;SDS011;1544;48.834;9.194;2024-03-07T01:06:07;37.47;;;23.57;;
3066;SDS011;1544;48.834;9.194;2024-03-07T01:08:45;35.80;;;23.40;;
3066;SDS011;1544;48.834;9.194;2024-03-07T01:11:21;41.67;;;23.10;;
3066;SDS011;1544;48.834;9.194;2024-03-07T01:13:57;37.00;;;23.43;;
3066;SDS011;1544;48.834;9.194;2024-03-07T01:16:33;41.10;;;23.87;;
3066;SDS011;1544;48.834;9.194;2024-03-07T01:19:10;36.60;;;23.70;;
3066;SDS011;1544;48.834;9.194;2024-03-07T01:21:45;39.80;;;24.27;;
3066;SDS011;1544;48.834;9.194;2024-03-07T01:24:21;45.43;;;25.17;;
3066;SDS011;1544;48.834;9.194;2024-03-07T01:26:58;39.00;;;24.40;;
3066;SDS011;1544;48.834;9.194;2024-03-07T01:29:35;40.03;;;23.90;;
3066;SDS011;1544;48.834;9.194;2024-03-07T01:32:11;44.17;;;26.70;;
3066;SDS011;1544;48.834;9.194;2024-03-07T01:34:47;38.97;;;24.17;;
3066;SDS011;1544;48.834;9.194;2024-03-07T01:37:23;40.47;;;24.70;;
3066;SDS011;1544;48.834;9.194;2024-03-07T01:39:59;42.37;;;26.67;;
3066;SDS011;1544;48.834;9.194;2024-03-07T01:42:35;43.87;;;25.60;;
3066;SDS011;1544;48.834;9.194;2024-03-07T01:45:10;42.17;;;25.50;;
3066;SDS011;1544;48.834;9.194;2024-03-07T01:47:46;45.70;;;26.40;;
3066;SDS011;1544;48.834;9.194;2024-03-07T01:50:23;44.07;;;25.37;;
3066;SDS011;1544;48.834;9.194;2024-03-07T01:52:59;42.73;;;25.93;;
3066;SDS011;1544;48.834;9.194;2024-03-07T01:55:36;43.63;;;25.07;;
3066;SDS011;1544;48.834;9.194;2024-03-07T01:58:12;38.77;;;23.80;;
3066;SDS011;1544;48.834;9.194;2024-03-07T02:00:53;42.17;;;26.83;;
3066;SDS011;1544;48.834;9.194;2024-03-07T02:03:29;42.13;;;25.40;;
3066;SDS011;1544;48.834;9.194;2024-03-07T02:06:06;46.67;;;25.77;;
3066;SDS011;1544;48.834;9.194;2024-03-07T02:08:42;47.07;;;27.90;;
3066;SDS011;1544;48.834;9.194;2024-03-07T02:11:18;44.83;;;26.70;;
3066;SDS011;1544;48.834;9.194;2024-03-07T02:13:54;43.30;;;25.97;;
3066;SDS011;1544;48.834;9.194;2024-03-07T02:16:30;45.70;;;25.40;;
3066;SDS011;1544;48.834;9.194;2024-03-07T02:19:07;47.93;;;26.10;;
3066;SDS011;1544;48.834;9.194;2024-03-07T02:21:43;45.10;;;26.80;;
3066;SDS011;1544;48.834;9.194;2024-03-07T02:24:19;40.90;;;23.70;;
3066;SDS011;1544;48.834;9.194;2024-03-07T02:26:55;44.20;;;26.07;;
3066;SDS011;1544;48.834;9.194;2024-03-07T02:29:31;48.00;;;26.90;;
3066;SDS011;1544;48.834;9.194;2024-03-07T02:32:07;43.33;;;25.53;;
3066;SDS011;1544;48.834;9.194;2024-03-07T02:34:43;43.03;;;25.93;;
3066;SDS011;1544;48.834;9.194;2024-03-07T02:37:19;48.87;;;27.77;;
3066;SDS011;1544;48.834;9.194;2024-03-07T02:39:55;49.30;;;27.93;;
3066;SDS011;1544;48.834;9.194;2024-03-07T02:42:31;44.23;;;25.97;;
3066;SDS011;1544;48.834;9.194;2024-03-07T02:45:07;44.30;;;26.10;;
3066;SDS011;1544;48.834;9.194;2024-03-07T02:47:43;49.77;;;26.50;;
3066;SDS011;1544;48.834;9.194;2024-03-07T02:50:20;49.20;;;27.20;;
3066;SDS011;1544;48.834;9.194;2024-03-07T02:52:57;53.57;;;28.53;;
3066;SDS011;1544;48.834;9.194;2024-03-07T02:55:33;43.77;;;26.37;;
3066;SDS011;1544;48.834;9.194;2024-03-07T02:58:09;46.90;;;27.83;;
3066;SDS011;1544;48.834;9.194;2024-03-07T03:00:45;47.03;;;27.00;;
3066;SDS011;1544;48.834;9.194;2024-03-07T03:03:21;47.03;;;25.90;;
3066;SDS011;1544;48.834;9.194;2024-03-07T03:05:57;47.27;;;26.23;;
3066;SDS011;1544;48.834;9.194;2024-03-07T03:08:35;53.03;;;27.63;;
3066;SDS011;1544;48.834;9.194;2024-03-07T03:11:11;50.13;;;27.03;;
3066;SDS011;1544;48.834;9.194;2024-03-07T03:13:49;46.63;;;26.00;;
3066;SDS011;1544;48.834;9.194;2024-03-07T03:16:25;43.07;;;26.33;;
3066;SDS011;1544;48.834;9.194;2024-03-07T03:19:21;42.93;;;26.23;;
3066;SDS011;1544;48.834;9.194;2024-03-07T03:21:58;45.03;;;25.47;;
3066;SDS011;1544;48.834;9.194;2024-03-07T03:24:34;43.13;;;25.07;;
3066;SDS011;1544;48.834;9.194;2024-03-07T03:27:10;50.33;;;28.63;;
3066;SDS011;1544;48.834;9.194;2024-03-07T03:29:46;46.03;;;26.83;;
3066;SDS011;1544;48.834;9.194;2024-03-07T03:32:23;48.33;;;25.30;;
3066;SDS011;1544;48.834;9.194;2024-03-07T03:34:59;52.70;;;26.97;;
3066;SDS011;1544;48.834;9.194;2024-03-07T03:37:35;47.60;;;25.50;;
3066;SDS011;1544;48.834;9.194;2024-03-07T03:40:11;47.47;;;26.97;;
3066;SDS011;1544;48.834;9.194;2024-03-07T03:42:48;47.50;;;26.23;;
3066;SDS011;1544;48.834;9.194;2024-03-07T03:45:24;43.77;;;24.83;;
3066;SDS011;1544;48.834;9.194;2024-03-07T03:48:02;46.03;;;27.57;;
3066;SDS011;1544;48.834;9.194;2024-03-07T03:50:39;48.87;;;27.50;;
3066;SDS011;1544;48.834;9.194;2024-03-07T03:53:15;56.77;;;27.93;;
3066;SDS011;1544;48.834;9.194;2024-03-07T03:55:51;47.03;;;24.30;;
3066;SDS011;1544;48.834;9.194;2024-03-07T03:58:27;50.27;;;27.83;;
3066;SDS011;1544;48.834;9.194;2024-03-07T04:01:04;51.10;;;27.20;;
3066;SDS011;1544;48.834;9.194;2024-03-07T04:03:43;53.27;;;27.60;;
3066;SDS011;1544;48.834;9.194;2024-03-07T04:06:22;47.63;;;26.50;;
3066;SDS011;1544;48.834;9.194;2024-03-07T04:08:59;47.10;;;26.93;;
3066;SDS011;1544;48.834;9.194;2024-03-07T04:11:35;47.30;;;25.93;;
3066;SDS011;1544;48.834;9.194;2024-03-07T04:14:12;48.10;;;27.20;;
3066;SDS011;1544;48.834;9.194;2024-03-07T04:16:48;54.90;;;30.27;;
3066;SDS011;1544;48.834;9.194;2024-03-07T04:19:24;48.83;;;26.87;;
3066;SDS011;1544;48.834;9.194;2024-03-07T04:22:00;48.47;;;26.70;;
3066;SDS011;1544;48.834;9.194;2024-03-07T04:24:38;50.70;;;28.90;;
3066;SDS011;1544;48.834;9.194;2024-03-07T04:27:15;51.33;;;28.83;;
3066;SDS011;1544;48.834;9.194;2024-03-07T04:29:51;49.30;;;29.07;;
3066;SDS011;1544;48.834;9.194;2024-03-07T04:32:27;50.30;;;26.73;;
3066;SDS011;1544;48.834;9.194;2024-03-07T04:35:04;46.73;;;26.70;;
3066;SDS011;1544;48.834;9.194;2024-03-07T04:37:43;46.10;;;24.60;;
3066;SDS011;1544;48.834;9.194;2024-03-07T04:40:19;45.00;;;26.70;;
3066;SDS011;1544;48.834;9.194;2024-03-07T04:42:55;41.80;;;24.63;;
3066;SDS011;1544;48.834;9.194;2024-03-07T04:45:31;47.13;;;25.30;;
3066;SDS011;1544;48.834;9.194;2024-03-07T04:48:07;48.27;;;27.13;;
3066;SDS011;1544;48.834;9.194;2024-03-07T04:50:44;48.87;;;25.87;;
3066;SDS011;1544;48.834;9.194;2024-03-07T04:53:20;46.97;;;26.60;;
3066;SDS011;1544;48.834;9.194;2024-03-07T04:55:56;47.93;;;27.27;;
3066;SDS011;1544;48.834;9.194;2024-03-07T04:58:32;47.00;;;26.43;;
3066;SDS011;1544;48.834;9.194;2024-03-07T05:01:08;44.40;;;24.90;;
3066;SDS011;1544;48.834;9.194;2024-03-07T05:03:44;49.20;;;25.70;;
3066;SDS011;1544;48.834;9.194;2024-03-07T05:06:20;46.20;;;25.23;;
3066;SDS011;1544;48.834;9.194;2024-03-07T05:08:56;46.30;;;26.40;;
3066;SDS011;1544;48.834;9.194;2024-03-07T05:11:33;45.83;;;25.73;;
3066;SDS011;1544;48.834;9.194;2024-03-07T05:14:10;54.10;;;26.57;;
3066;SDS011;1544;48.834;9.194;2024-03-07T05:16:46;50.30;;;27.30;;
3066;SDS011;1544;48.834;9.194;2024-03-07T05:19:37;41.40;;;25.10;;
3066;SDS011;1544;48.834;9.194;2024-03-07T05:22:13;45.83;;;26.10;;
3066;SDS011;1544;48.834;9.194;2024-03-07T05:24:51;45.97;;;25.37;;
3066;SDS011;1544;48.834;9.194;2024-03-07T05:27:27;47.97;;;25.30;;
3066;SDS011;1544;48.834;9.194;2024-03-07T05:30:05;42.67;;;23.73;;
3066;SDS011;1544;48.834;9.194;2024-03-07T05:32:45;47.23;;;26.43;;
3066;SDS011;1544;48.834;9.194;2024-03-07T05:35:23;46.40;;;23.77;;
3066;SDS011;1544;48.834;9.194;2024-03-07T05:37:59;46.00;;;23.90;;
3066;SDS011;1544;48.834;9.194;2024-03-07T05:40:40;43.77;;;25.60;;
3066;SDS011;1544;48.834;9.194;2024-03-07T05:43:18;46.77;;;25.50;;
3066;SDS011;1544;48.834;9.194;2024-03-07T05:45:54;41.73;;;24.27;;
3066;SDS011;1544;48.834;9.194;2024-03-07T05:48:30;45.20;;;24.07;;
3066;SDS011;1544;48.834;9.194;2024-03-07T05:51:07;43.53;;;25.07;;
3066;SDS011;1544;48.834;9.194;2024-03-07T05:53:43;43.63;;;23.90;;
3066;SDS011;1544;48.834;9.194;2024-03-07T05:56:19;41.30;;;24.70;;
3066;SDS011;1544;48.834;9.194;2024-03-07T05:58:55;46.73;;;24.37;;
3066;SDS011;1544;48.834;9.194;2024-03-07T06:01:31;46.20;;;25.20;;
3066;SDS011;1544;48.834;9.194;2024-03-07T06:04:09;46.33;;;25.30;;
3066;SDS011;1544;48.834;9.194;2024-03-07T06:06:46;43.83;;;24.80;;
3066;SDS011;1544;48.834;9.194;2024-03-07T06:09:22;45.57;;;25.03;;
3066;SDS011;1544;48.834;9.194;2024-03-07T06:11:58;48.00;;;25.00;;
3066;SDS011;1544;48.834;9.194;2024-03-07T06:14:39;47.90;;;24.87;;
3066;SDS011;1544;48.834;9.194;2024-03-07T06:17:15;40.20;;;24.40;;
3066;SDS011;1544;48.834;9.194;2024-03-07T06:19:54;42.40;;;23.70;;
3066;SDS011;1544;48.834;9.194;2024-03-07T06:22:30;40.83;;;23.30;;
3066;SDS011;1544;48.834;9.194;2024-03-07T06:25:06;41.37;;;23.67;;
3066;SDS011;1544;48.834;9.194;2024-03-07T06:27:42;43.87;;;23.60;;
3066;SDS011;1544;48.834;9.194;2024-03-07T06:30:23;41.80;;;24.17;;
3066;SDS011;1544;48.834;9.194;2024-03-07T06:32:59;42.90;;;23.13;;
3066;SDS011;1544;48.834;9.194;2024-03-07T06:35:35;37.70;;;22.23;;
3066;SDS011;1544;48.834;9.194;2024-03-07T06:38:12;41.97;;;23.13;;
3066;SDS011;1544;48.834;9.194;2024-03-07T06:40:49;46.33;;;22.70;;
3066;SDS011;1544;48.834;9.194;2024-03-07T06:43:25;38.27;;;20.30;;
3066;SDS011;1544;48.834;9.194;2024-03-07T06:46:00;38.80;;;21.23;;
3066;SDS011;1544;48.834;9.194;2024-03-07T06:48:37;32.03;;;20.47;;
3066;SDS011;1544;48.834;9.194;2024-03-07T06:51:17;39.50;;;21.43;;
3066;SDS011;1544;48.834;9.194;2024-03-07T06:53:53;35.53;;;20.83;;
3066;SDS011;1544;48.834;9.194;2024-03-07T06:56:31;34.23;;;20.10;;
3066;SDS011;1544;48.834;9.194;2024-03-07T06:59:07;39.13;;;23.50;;
3066;SDS011;1544;48.834;9.194;2024-03-07T07:01:43;38.50;;;20.63;;
3066;SDS011;1544;48.834;9.194;2024-03-07T07:04:19;36.07;;;19.33;;
3066;SDS011;1544;48.834;9.194;2024-03-07T07:06:55;32.50;;;19.40;;
3066;SDS011;1544;48.834;9.194;2024-03-07T07:09:31;38.90;;;20.70;;
3066;SDS011;1544;48.834;9.194;2024-03-07T07:12:07;37.90;;;19.73;;
3066;SDS011;1544;48.834;9.194;2024-03-07T07:14:43;32.40;;;20.00;;
3066;SDS011;1544;48.834;9.194;2024-03-07T07:17:19;34.80;;;19.77;;
3066;SDS011;1544;48.834;9.194;2024-03-07T07:19:56;38.30;;;22.43;;
3066;SDS011;1544;48.834;9.194;2024-03-07T07:22:33;30.27;;;19.00;;
3066;SDS011;1544;48.834;9.194;2024-03-07T07:25:10;33.97;;;20.60;;
3066;SDS011;1544;48.834;9.194;2024-03-07T07:27:49;36.93;;;21.27;;
3066;SDS011;1544;48.834;9.194;2024-03-07T07:30:27;33.57;;;19.83;;
3066;SDS011;1544;48.834;9.194;2024-03-07T07:33:03;31.00;;;18.70;;
3066;SDS011;1544;48.834;9.194;2024-03-07T07:35:40;35.90;;;20.20;;
3066;SDS011;1544;48.834;9.194;2024-03-07T07:38:16;34.53;;;19.60;;
3066;SDS011;1544;48.834;9.194;2024-03-07T07:40:52;36.73;;;23.20;;
3066;SDS011;1544;48.834;9.194;2024-03-07T07:43:28;35.63;;;20.67;;
3066;SDS011;1544;48.834;9.194;2024-03-07T07:46:17;30.77;;;18.93;;
3066;SDS011;1544;48.834;9.194;2024-03-07T07:48:53;33.67;;;19.10;;
3066;SDS011;1544;48.834;9.194;2024-03-07T07:51:29;35.17;;;20.40;;
3066;SDS011;1544;48.834;9.194;2024-03-07T07:54:05;31.77;;;18.40;;
3066;SDS011;1544;48.834;9.194;2024-03-07T07:56:41;31.27;;;19.30;;
3066;SDS011;1544;48.834;9.194;2024-03-07T07:59:17;30.43;;;18.60;;
3066;SDS011;1544;48.834;9.194;2024-03-07T08:01:53;30.60;;;19.10;;
3066;SDS011;1544;48.834;9.194;2024-03-07T08:04:30;34.63;;;19.37;;
3066;SDS011;1544;48.834;9.194;2024-03-07T08:07:07;34.53;;;19.40;;
3066;SDS011;1544;48.834;9.194;2024-03-07T08:09:43;33.37;;;19.67;;
3066;SDS011;1544;48.834;9.194;2024-03-07T08:12:19;31.10;;;19.00;;
3066;SDS011;1544;48.834;9.194;2024-03-07T08:14:55;34.07;;;20.63;;
3066;SDS011;1544;48.834;9.194;2024-03-07T08:17:31;31.27;;;19.43;;
3066;SDS011;1544;48.834;9.194;2024-03-07T08:20:07;32.57;;;20.47;;
3066;SDS011;1544;48.834;9.194;2024-03-07T08:22:56;30.60;;;18.93;;
3066;SDS011;1544;48.834;9.194;2024-03-07T08:25:34;30.83;;;18.83;;
3066;SDS011;1544;48.834;9.194;2024-03-07T08:28:10;32.80;;;19.77;;
3066;SDS011;1544;48.834;9.194;2024-03-07T08:30:46;31.53;;;19.93;;
3066;SDS011;1544;48.834;9.194;2024-03-07T08:33:22;32.87;;;19.13;;
3066;SDS011;1544;48.834;9.194;2024-03-07T08:35:58;33.03;;;19.87;;
3066;SDS011;1544;48.834;9.194;2024-03-07T08:38:34;28.40;;;19.10;;
3066;SDS011;1544;48.834;9.194;2024-03-07T08:41:12;30.97;;;17.47;;
3066;SDS011;1544;48.834;9.194;2024-03-07T08:43:48;27.20;;;17.40;;
3066;SDS011;1544;48.834;9.194;2024-03-07T08:46:24;24.87;;;17.43;;
3066;SDS011;1544;48.834;9.194;2024-03-07T08:49:01;27.57;;;19.40;;
3066;SDS011;1544;48.834;9.194;2024-03-07T08:51:37;32.20;;;18.97;;
3066;SDS011;1544;48.834;9.194;2024-03-07T08:54:13;25.30;;;16.97;;
3066;SDS011;1544;48.834;9.194;2024-03-07T08:56:49;27.13;;;17.90;;
3066;SDS011;1544;48.834;9.194;2024-03-07T08:59:25;28.47;;;17.70;;
3066;SDS011;1544;48.834;9.194;2024-03-07T09:02:01;23.97;;;15.40;;
3066;SDS011;1544;48.834;9.194;2024-03-07T09:04:37;24.87;;;16.47;;
3066;SDS011;1544;48.834;9.194;2024-03-07T09:07:13;21.87;;;15.87;;
3066;SDS011;1544;48.834;9.194;2024-03-07T09:09:53;27.80;;;17.73;;
3066;SDS011;1544;48.834;9.194;2024-03-07T09:12:29;27.23;;;17.40;;
3066;SDS011;1544;48.834;9.194;2024-03-07T09:15:05;28.20;;;17.70;;
3066;SDS011;1544;48.834;9.194;2024-03-07T09:17:41;33.57;;;20.00;;
3066;SDS011;1544;48.834;9.194;2024-03-07T09:20:17;22.20;;;16.20;;
3066;SDS011;1544;48.834;9.194;2024-03-07T09:22:54;22.57;;;16.83;;
3066;SDS011;1544;48.834;9.194;2024-03-07T09:25:31;21.97;;;15.90;;
3066;SDS011;1544;48.834;9.194;2024-03-07T09:28:10;26.87;;;18.23;;
3066;SDS011;1544;48.834;9.194;2024-03-07T09:30:46;23.33;;;15.53;;
3066;SDS011;1544;48.834;9.194;2024-03-07T09:33:22;24.43;;;17.23;;
3066;SDS011;1544;48.834;9.194;2024-03-07T09:36:03;26.90;;;17.17;;
3066;SDS011;1544;48.834;9.194;2024-03-07T09:38:40;25.93;;;17.00;;
3066;SDS011;1544;48.834;9.194;2024-03-07T09:41:16;22.57;;;15.97;;
3066;SDS011;1544;48.834;9.194;2024-03-07T09:43:52;22.80;;;16.47;;
3066;SDS011;1544;48.834;9.194;2024-03-07T09:46:31;25.07;;;17.53;;
3066;SDS011;1544;48.834;9.194;2024-03-07T09:49:07;21.40;;;14.93;;
3066;SDS011;1544;48.834;9.194;2024-03-07T09:51:48;31.90;;;18.80;;
3066;SDS011;1544;48.834;9.194;2024-03-07T09:54:30;27.97;;;18.80;;
3066;SDS011;1544;48.834;9.194;2024-03-07T09:57:06;32.33;;;20.37;;
3066;SDS011;1544;48.834;9.194;2024-03-07T09:59:45;24.80;;;16.53;;
3066;SDS011;1544;48.834;9.194;2024-03-07T10:02:22;23.23;;;16.70;;
3066;SDS011;1544;48.834;9.194;2024-03-07T10:05:00;26.30;;;18.20;;
3066;SDS011;1544;48.834;9.194;2024-03-07T10:07:37;28.33;;;18.40;;
3066;SDS011;1544;48.834;9.194;2024-03-07T10:10:13;24.57;;;17.00;;
3066;SDS011;1544;48.834;9.194;2024-03-07T10:12:49;24.70;;;16.70;;
3066;SDS011;1544;48.834;9.194;2024-03-07T10:15:28;27.10;;;17.80;;
3066;SDS011;1544;48.834;9.194;2024-03-07T10:18:06;27.23;;;18.10;;
3066;SDS011;1544;48.834;9.194;2024-03-07T10:20:45;28.90;;;19.20;;
3066;SDS011;1544;48.834;9.194;2024-03-07T10:23:22;30.00;;;19.10;;
3066;SDS011;1544;48.834;9.194;2024-03-07T10:25:59;29.47;;;18.37;;
3066;SDS011;1544;48.834;9.194;2024-03-07T10:28:35;30.13;;;19.00;;
3066;SDS011;1544;48.834;9.194;2024-03-07T10:31:10;31.07;;;18.17;;
3066;SDS011;1544;48.834;9.194;2024-03-07T10:33:46;35.03;;;20.60;;
3066;SDS011;1544;48.834;9.194;2024-03-07T10:36:22;29.63;;;19.13;;
3066;SDS011;1544;48.834;9.194;2024-03-07T10:38:59;28.77;;;18.47;;
3066;SDS011;1544;48.834;9.194;2024-03-07T10:41:41;31.03;;;18.90;;
3066;SDS011;1544;48.834;9.194;2024-03-07T10:44:26;31.10;;;19.10;;
3066;SDS011;1544;48.834;9.194;2024-03-07T10:47:04;31.70;;;19.93;;
3066;SDS011;1544;48.834;9.194;2024-03-07T10:49:43;31.47;;;19.67;;
3066;SDS011;1544;48.834;9.194;2024-03-07T10:55:54;30.37;;;19.70;;
3066;SDS011;1544;48.834;9.194;2024-03-07T10:58:57;32.80;;;19.97;;
3066;SDS011;1544;48.834;9.194;2024-03-07T11:01:54;30.47;;;18.80;;
3066;SDS011;1544;48.834;9.194;2024-03-07T11:04:35;32.80;;;19.40;;
3066;SDS011;1544;48.834;9.194;2024-03-07T11:07:11;34.43;;;21.37;;
3066;SDS011;1544;48.834;9.194;2024-03-07T11:09:48;32.57;;;19.20;;
3066;SDS011;1544;48.834;9.194;2024-03-07T11:12:27;31.47;;;19.70;;
3066;SDS011;1544;48.834;9.194;2024-03-07T11:15:04;26.90;;;18.83;;
3066;SDS011;1544;48.834;9.194;2024-03-07T11:17:42;25.10;;;17.40;;
3066;SDS011;1544;48.834;9.194;2024-03-07T11:20:23;30.07;;;19.80;;
3066;SDS011;1544;48.834;9.194;2024-03-07T11:26:05;34.87;;;20.83;;
3066;SDS011;1544;48.834;9.194;2024-03-07T11:28:46;31.83;;;20.87;;
3066;SDS011;1544;48.834;9.194;2024-03-07T11:31:26;31.30;;;20.37;;
3066;SDS011;1544;48.834;9.194;2024-03-07T11:34:12;30.20;;;20.80;;
3066;SDS011;1544;48.834;9.194;2024-03-07T11:36:54;33.47;;;20.77;;
3066;SDS011;1544;48.834;9.194;2024-03-07T11:39:44;29.67;;;19.93;;
3066;SDS011;1544;48.834;9.194;2024-03-07T11:42:27;32.50;;;22.23;;
3066;SDS011;1544;48.834;9.194;2024-03-07T11:45:05;32.80;;;21.30;;
3066;SDS011;1544;48.834;9.194;2024-03-07T11:47:42;29.83;;;20.43;;
3066;SDS011;1544;48.834;9.194;2024-03-07T11:50:19;32.87;;;21.97;;
3066;SDS011;1544;48.834;9.194;2024-03-07T11:52:55;35.00;;;21.80;;
3066;SDS011;1544;48.834;9.194;2024-03-07T11:55:36;30.67;;;21.40;;
3066;SDS011;1544;48.834;9.194;2024-03-07T11:58:21;35.13;;;22.37;;
3066;SDS011;1544;48.834;9.194;2024-03-07T12:00:57;27.73;;;19.70;;
3066;SDS011;1544;48.834;9.194;2024-03-07T12:03:33;29.70;;;20.50;;
3066;SDS011;1544;48.834;9.194;2024-03-07T12:06:09;26.37;;;19.50;;
3066;SDS011;1544;48.834;9.194;2024-03-07T12:08:48;27.90;;;19.27;;
3066;SDS011;1544;48.834;9.194;2024-03-07T12:11:24;28.60;;;19.90;;
3066;SDS011;1544;48.834;9.194;2024-03-07T12:14:01;30.40;;;20.40;;
3066;SDS011;1544;48.834;9.194;2024-03-07T12:16:38;30.43;;;20.83;;
3066;SDS011;1544;48.834;9.194;2024-03-07T12:19:14;26.40;;;19.80;;
3066;SDS011;1544;48.834;9.194;2024-03-07T12:21:56;25.70;;;19.97;;
3066;SDS011;1544;48.834;9.194;2024-03-07T12:24:35;25.77;;;18.77;;
3066;SDS011;1544;48.834;9.194;2024-03-07T12:27:12;24.17;;;17.43;;
3066;SDS011;1544;48.834;9.194;2024-03-07T12:29:51;28.00;;;18.30;;
3066;SDS011;1544;48.834;9.194;2024-03-07T12:32:28;26.43;;;19.27;;
3066;SDS011;1544;48.834;9.194;2024-03-07T12:35:04;27.93;;;19.37;;
3066;SDS011;1544;48.834;9.194;2024-03-07T12:37:41;28.20;;;20.20;;
3066;SDS011;1544;48.834;9.194;2024-03-07T12:40:19;25.87;;;18.33;;
3066;SDS011;1544;48.834;9.194;2024-03-07T12:42:58;29.80;;;19.40;;
3066;SDS011;1544;48.834;9.194;2024-03-07T12:45:34;30.67;;;21.27;;
3066;SDS011;1544;48.834;9.194;2024-03-07T12:48:10;29.53;;;21.33;;
3066;SDS011;1544;48.834;9.194;2024-03-07T12:50:50;28.80;;;19.07;;
3066;SDS011;1544;48.834;9.194;2024-03-07T12:53:30;32.47;;;19.93;;
3066;SDS011;1544;48.834;9.194;2024-03-07T12:56:07;30.77;;;21.47;;
3066;SDS011;1544;48.834;9.194;2024-03-07T12:58:44;28.80;;;19.40;;
3066;SDS011;1544;48.834;9.194;2024-03-07T13:01:22;27.93;;;19.63;;
3066;SDS011;1544;48.834;9.194;2024-03-07T13:03:58;30.50;;;21.83;;
3066;SDS011;1544;48.834;9.194;2024-03-07T13:06:34;28.50;;;19.57;;
3066;SDS011;1544;48.834;9.194;2024-03-07T13:09:10;28.97;;;18.97;;
3066;SDS011;1544;48.834;9.194;2024-03-07T13:11:46;28.20;;;18.93;;
3066;SDS011;1544;48.834;9.194;2024-03-07T13:14:23;28.77;;;19.37;;
3066;SDS011;1544;48.834;9.194;2024-03-07T13:17:00;26.23;;;19.97;;
3066;SDS011;1544;48.834;9.194;2024-03-07T13:19:40;21.77;;;17.23;;
3066;SDS011;1544;48.834;9.194;2024-03-07T13:22:18;25.40;;;18.40;;
3066;SDS011;1544;48.834;9.194;2024-03-07T13:24:54;26.40;;;18.20;;
3066;SDS011;1544;48.834;9.194;2024-03-07T13:27:30;24.57;;;17.77;;
3066;SDS011;1544;48.834;9.194;2024-03-07T13:30:07;29.00;;;20.73;;
3066;SDS011;1544;48.834;9.194;2024-03-07T13:32:43;24.07;;;18.90;;
3066;SDS011;1544;48.834;9.194;2024-03-07T13:35:21;25.70;;;18.37;;
3066;SDS011;1544;48.834;9.194;2024-03-07T13:37:58;27.87;;;19.60;;
3066;SDS011;1544;48.834;9.194;2024-03-07T13:40:34;27.20;;;20.57;;
3066;SDS011;1544;48.834;9.194;2024-03-07T13:43:14;25.10;;;19.23;;
3066;SDS011;1544;48.834;9.194;2024-03-07T13:45:50;27.17;;;19.60;;
3066;SDS011;1544;48.834;9.194;2024-03-07T13:48:26;27.03;;;19.03;;
3066;SDS011;1544;48.834;9.194;2024-03-07T13:51:03;29.40;;;19.80;;
3066;SDS011;1544;48.834;9.194;2024-03-07T13:53:43;27.93;;;19.53;;
3066;SDS011;1544;48.834;9.194;2024-03-07T13:56:29;30.10;;;21.57;;
3066;SDS011;1544;48.834;9.194;2024-03-07T13:59:26;28.90;;;20.07;;
3066;SDS011;1544;48.834;9.194;2024-03-07T14:16:03;31.10;;;21.23;;
3066;SDS011;1544;48.834;9.194;2024-03-07T14:22:41;26.00;;;20.30;;
3066;SDS011;1544;48.834;9.194;2024-03-07T14:26:04;28.53;;;19.50;;
3066;SDS011;1544;48.834;9.194;2024-03-07T14:32:20;30.60;;;21.60;;
3066;SDS011;1544;48.834;9.194;2024-03-07T14:35:01;29.50;;;21.73;;
3066;SDS011;1544;48.834;9.194;2024-03-07T14:37:54;27.43;;;19.33;;
3066;SDS011;1544;48.834;9.194;2024-03-07T14:40:42;29.33;;;20.70;;
3066;SDS011;1544;48.834;9.194;2024-03-07T14:43:24;32.43;;;22.40;;
3066;SDS011;1544;48.834;9.194;2024-03-07T14:46:00;27.70;;;20.07;;
3066;SDS011;1544;48.834;9.194;2024-03-07T14:48:37;26.43;;;19.70;;
3066;SDS011;1544;48.834;9.194;2024-03-07T14:51:14;25.47;;;18.23;;
3066;SDS011;1544;48.834;9.194;2024-03-07T14:53:50;28.37;;;20.73;;
3066;SDS011;1544;48.834;9.194;2024-03-07T14:56:26;26.03;;;20.37;;
3066;SDS011;1544;48.834;9.194;2024-03-07T14:59:03;31.70;;;19.90;;
3066;SDS011;1544;48.834;9.194;2024-03-07T15:01:41;30.77;;;21.07;;
3066;SDS011;1544;48.834;9.194;2024-03-07T15:04:17;24.00;;;17.80;;
3066;SDS011;1544;48.834;9.194;2024-03-07T15:06:56;31.37;;;20.27;;
3066;SDS011;1544;48.834;9.194;2024-03-07T15:09:32;25.50;;;18.80;;
3066;SDS011;1544;48.834;9.194;2024-03-07T15:12:10;22.60;;;16.83;;
3066;SDS011;1544;48.834;9.194;2024-03-07T15:14:46;24.60;;;17.27;;
3066;SDS011;1544;48.834;9.194;2024-03-07T15:17:29;26.57;;;19.00;;
3066;SDS011;1544;48.834;9.194;2024-03-07T15:20:05;23.63;;;16.47;;
3066;SDS011;1544;48.834;9.194;2024-03-07T15:22:57;24.50;;;16.90;;
3066;SDS011;1544;48.834;9.194;2024-03-07T15:25:35;24.27;;;16.77;;
3066;SDS011;1544;48.834;9.194;2024-03-07T15:28:12;24.10;;;17.67;;
3066;SDS011;1544;48.834;9.194;2024-03-07T15:30:48;27.93;;;17.20;;
3066;SDS011;1544;48.834;9.194;2024-03-07T15:33:24;28.53;;;19.37;;
3066;SDS011;1544;48.834;9.194;2024-03-07T15:36:00;28.40;;;18.70;;
3066;SDS011;1544;48.834;9.194;2024-03-07T15:38:40;22.70;;;16.80;;
3066;SDS011;1544;48.834;9.194;2024-03-07T15:41:17;25.07;;;16.70;;
3066;SDS011;1544;48.834;9.194;2024-03-07T15:43:53;25.03;;;17.20;;
3066;SDS011;1544;48.834;9.194;2024-03-07T15:46:29;21.27;;;16.40;;
3066;SDS011;1544;48.834;9.194;2024-03-07T15:49:05;25.90;;;17.53;;
3066;SDS011;1544;48.834;9.194;2024-03-07T15:51:42;24.90;;;16.63;;
3066;SDS011;1544;48.834;9.194;2024-03-07T15:54:18;26.33;;;17.50;;
3066;SDS011;1544;48.834;9.194;2024-03-07T15:56:54;23.37;;;16.97;;
3066;SDS011;1544;48.834;9.194;2024-03-07T15:59:30;25.40;;;17.10;;
3066;SDS011;1544;48.834;9.194;2024-03-07T16:02:08;25.37;;;17.13;;
3066;SDS011;1544;48.834;9.194;2024-03-07T16:04:45;24.37;;;16.40;;
3066;SDS011;1544;48.834;9.194;2024-03-07T16:07:21;22.97;;;15.17;;
3066;SDS011;1544;48.834;9.194;2024-03-07T16:09:57;23.97;;;15.80;;
3066;SDS011;1544;48.834;9.194;2024-03-07T16:12:33;25.80;;;18.33;;
3066;SDS011;1544;48.834;9.194;2024-03-07T16:15:09;25.97;;;18.20;;
3066;SDS011;1544;48.834;9.194;2024-03-07T16:17:45;28.80;;;17.97;;